If you wish to contribute or participate in the discussions about articles you are invited to join SKYbrary as a registered user

 Actions

Sary-Arka Airport

From SKYbrary Wiki

UAKK
Airport
ICAO: UAKK – IATA: KGF
Summary
Name Sary-Arka Airport
Region Asia and Pacific
Territory Kazakhstan KZ.gif
Location Karaganda
Serving Karaganda
Elevation 537.972 m
1,765 ft
1,765 ft537.972 m
Coordinates 49° 40' 15.00" N, 73° 20' 4.00" E
Runways
Designator Length Width Surface ROPS
5/23 3301 m10,830.053 ft
60 m196.85 ft
CON yes/yes


METAR
Observation UAKK 181730Z 19004MPS CAVOK 14/02 Q1015 R23/0///70 NOSIG RMK QFE714/0952
Station Karaganda
Date/Time 18 September 2019 17:30:00
Wind direction 190°
Wind speed kts
Lowest cloud amount clouds and visibility OK
Temperature 14°C
Dew point 2°C
Humidity 44%
QNH 1015 hPa
Weather condition n/a

Description

Sary-Arka Airport is the airport of Karagandy, Kazakhstan. It is located 24 km southeast of the city.